createdAt,value
2017-09-25T00:00:18.463Z,0
2017-09-25T00:01:27.128Z,0
2017-09-25T00:02:36.749Z,0
2017-09-25T00:03:45.736Z,0
2017-09-25T00:04:55.320Z,0
2017-09-25T00:06:04.759Z,0
2017-09-25T00:07:14.034Z,0
2017-09-25T00:08:23.325Z,0
2017-09-25T00:09:32.287Z,0
2017-09-25T00:10:41.268Z,0
2017-09-25T00:11:50.326Z,0
2017-09-25T00:12:59.283Z,0
2017-09-25T00:14:08.280Z,0
2017-09-25T00:15:17.555Z,0
2017-09-25T00:16:26.825Z,0
2017-09-25T00:17:35.801Z,0
2017-09-25T00:18:44.776Z,0
2017-09-25T00:19:54.374Z,0
2017-09-25T00:21:03.342Z,0
2017-09-25T00:22:12.628Z,0
2017-09-25T00:23:21.599Z,0
2017-09-25T00:24:30.903Z,0
2017-09-25T00:25:40.209Z,0
2017-09-25T00:26:49.804Z,0
2017-09-25T00:27:58.799Z,0
2017-09-25T00:29:07.926Z,0
2017-09-25T00:30:16.564Z,0
2017-09-25T00:31:25.846Z,0
2017-09-25T00:32:35.141Z,0
2017-09-25T00:33:44.478Z,0
2017-09-25T00:34:53.967Z,0
2017-09-25T00:36:02.972Z,0
2017-09-25T00:37:11.942Z,0
2017-09-25T00:38:21.524Z,0
2017-09-25T00:39:30.478Z,0
2017-09-25T00:40:39.758Z,0
2017-09-25T00:41:48.774Z,0
2017-09-25T00:42:57.757Z,0
2017-09-25T00:44:06.740Z,0
2017-09-25T00:45:15.745Z,0
2017-09-25T00:46:25.122Z,0
2017-09-25T00:47:33.783Z,0
2017-09-25T00:48:43.066Z,0
2017-09-25T00:49:52.066Z,0
2017-09-25T00:51:01.040Z,0
2017-09-25T00:52:10.374Z,0
2017-09-25T00:53:19.653Z,0
2017-09-25T00:54:28.626Z,0
2017-09-25T00:55:37.619Z,0
2017-09-25T00:56:46.578Z,0
2017-09-25T00:57:55.689Z,0
2017-09-25T00:59:04.375Z,0
2017-09-25T01:00:13.035Z,0
2017-09-25T01:01:22.036Z,0
2017-09-25T01:02:31.632Z,0
2017-09-25T01:03:41.226Z,0
2017-09-25T01:04:50.190Z,0
2017-09-25T01:05:59.794Z,0
2017-09-25T01:07:09.097Z,0
2017-09-25T01:08:18.685Z,0
2017-09-25T01:09:27.753Z,0
2017-09-25T01:10:37.045Z,0
2017-09-25T01:11:46.643Z,0
2017-09-25T01:12:55.934Z,0
2017-09-25T01:14:04.587Z,0
2017-09-25T01:15:13.431Z,0
2017-09-25T01:16:22.395Z,0
2017-09-25T01:17:32.306Z,0
2017-09-25T01:18:41.919Z,0
2017-09-25T01:19:50.564Z,0
2017-09-25T01:20:59.852Z,0
2017-09-25T01:22:08.524Z,0
2017-09-25T01:23:17.808Z,0
2017-09-25T01:24:26.772Z,0
2017-09-25T01:25:36.373Z,0
2017-09-25T01:26:45.337Z,0
2017-09-25T01:27:54.312Z,0
2017-09-25T01:29:03.922Z,0
2017-09-25T01:30:13.503Z,0
2017-09-25T01:31:22.468Z,0
2017-09-25T01:32:31.607Z,0
2017-09-25T01:33:40.566Z,0
2017-09-25T01:34:49.840Z,0
2017-09-25T01:35:58.478Z,0
2017-09-25T01:37:07.457Z,0
2017-09-25T01:38:16.831Z,0
2017-09-25T01:39:25.490Z,0
2017-09-25T01:40:34.198Z,0
2017-09-25T01:41:43.475Z,0
2017-09-25T01:42:52.748Z,0
2017-09-25T01:44:02.034Z,0
2017-09-25T01:45:11.341Z,0
2017-09-25T01:46:20.014Z,0
2017-09-25T01:47:28.976Z,0
2017-09-25T01:48:37.949Z,0
2017-09-25T01:49:46.912Z,0
2017-09-25T01:50:56.197Z,0
2017-09-25T01:52:05.471Z,0
2017-09-25T01:53:14.771Z,0
2017-09-25T01:54:23.426Z,0
2017-09-25T01:55:32.202Z,0
2017-09-25T01:56:41.169Z,0
2017-09-25T01:57:50.755Z,0
2017-09-25T01:58:59.708Z,0
2017-09-25T02:00:08.673Z,0
2017-09-25T02:01:18.106Z,0
2017-09-25T02:02:27.067Z,0
2017-09-25T02:03:35.729Z,0
2017-09-25T02:04:44.707Z,0
2017-09-25T02:05:53.982Z,0
2017-09-25T02:07:02.724Z,0
2017-09-25T02:08:11.695Z,0
2017-09-25T02:09:20.656Z,0
2017-09-25T02:10:29.307Z,0
2017-09-25T02:11:37.961Z,0
2017-09-25T02:12:46.928Z,0
2017-09-25T02:13:55.902Z,0
2017-09-25T02:15:05.191Z,0
2017-09-25T02:16:14.165Z,0
2017-09-25T02:17:23.763Z,0
2017-09-25T02:18:32.722Z,0
2017-09-25T02:19:41.678Z,0
2017-09-25T02:20:50.325Z,0
2017-09-25T02:21:59.912Z,0
2017-09-25T02:23:08.879Z,0
2017-09-25T02:24:18.151Z,0
2017-09-25T02:25:26.788Z,0
2017-09-25T02:26:35.760Z,0
2017-09-25T02:27:44.723Z,0
2017-09-25T02:28:53.715Z,0
2017-09-25T02:30:02.514Z,0
2017-09-25T02:31:11.487Z,0
2017-09-25T02:32:20.763Z,0
2017-09-25T02:33:29.726Z,0
2017-09-25T02:34:39.330Z,0
2017-09-25T02:35:47.978Z,0
2017-09-25T02:36:57.253Z,0
2017-09-25T02:38:05.918Z,0
2017-09-25T02:39:15.207Z,0
2017-09-25T02:40:24.204Z,0
2017-09-25T02:41:33.481Z,0
2017-09-25T02:42:42.757Z,0
2017-09-25T02:43:51.407Z,0
2017-09-25T02:45:00.074Z,0
2017-09-25T02:46:09.038Z,0
2017-09-25T02:47:17.982Z,0
2017-09-25T02:48:27.892Z,0
2017-09-25T02:49:37.202Z,0
2017-09-25T02:50:46.784Z,0
2017-09-25T02:51:55.427Z,0
2017-09-25T02:53:05.020Z,0
2017-09-25T02:54:13.989Z,0
2017-09-25T02:55:22.945Z,0
2017-09-25T02:56:32.224Z,0
2017-09-25T02:57:41.519Z,0
2017-09-25T02:58:50.201Z,0
2017-09-25T02:59:59.226Z,0
2017-09-25T03:01:08.186Z,0
2017-09-25T03:02:17.464Z,0
2017-09-25T03:03:27.144Z,0
2017-09-25T03:04:35.953Z,0
2017-09-25T03:05:44.909Z,0
2017-09-25T03:06:54.551Z,0
2017-09-25T03:08:03.517Z,0
2017-09-25T03:09:12.799Z,0
2017-09-25T03:10:21.755Z,0
2017-09-25T03:11:30.706Z,0
2017-09-25T03:12:39.368Z,0
2017-09-25T03:13:48.028Z,0
2017-09-25T03:14:56.997Z,0
2017-09-25T03:16:05.970Z,0
2017-09-25T03:17:14.627Z,0
2017-09-25T03:18:24.573Z,0
2017-09-25T03:19:33.882Z,0
2017-09-25T03:20:42.836Z,0
2017-09-25T03:21:51.802Z,0
2017-09-25T03:23:00.772Z,0
2017-09-25T03:24:09.429Z,0
2017-09-25T03:25:18.080Z,0
2017-09-25T03:26:27.361Z,0
2017-09-25T03:27:36.951Z,0
2017-09-25T03:28:45.922Z,0
2017-09-25T03:29:55.201Z,0
2017-09-25T03:31:04.820Z,0
2017-09-25T03:32:13.459Z,0
2017-09-25T03:33:22.720Z,0
2017-09-25T03:34:32.001Z,0
2017-09-25T03:35:40.644Z,0
2017-09-25T03:36:49.633Z,0
2017-09-25T03:37:58.914Z,0
2017-09-25T03:39:08.506Z,0
2017-09-25T03:40:17.471Z,0
2017-09-25T03:41:26.116Z,0
2017-09-25T03:42:35.386Z,0
2017-09-25T03:43:44.354Z,0
2017-09-25T03:44:53.727Z,0
2017-09-25T03:46:03.629Z,0
2017-09-25T03:47:12.583Z,0
2017-09-25T03:48:21.569Z,0
2017-09-25T03:49:30.850Z,0
2017-09-25T03:50:40.121Z,0
2017-09-25T03:51:49.400Z,0
2017-09-25T03:52:58.358Z,0
2017-09-25T03:54:07.330Z,0
2017-09-25T03:55:16.315Z,0
2017-09-25T03:56:25.298Z,0
2017-09-25T03:57:34.273Z,0
2017-09-25T03:58:43.236Z,0
2017-09-25T03:59:51.893Z,0
2017-09-25T04:01:01.165Z,0
2017-09-25T04:02:10.749Z,0
2017-09-25T04:03:20.038Z,0
2017-09-25T04:04:29.308Z,0
2017-09-25T04:05:38.587Z,0
2017-09-25T04:06:47.876Z,0
2017-09-25T04:07:56.994Z,0
2017-09-25T04:09:06.280Z,0
2017-09-25T04:10:15.261Z,0
2017-09-25T04:11:23.913Z,0
2017-09-25T04:12:32.873Z,0
2017-09-25T04:13:41.993Z,0
2017-09-25T04:14:50.940Z,0
2017-09-25T04:15:59.596Z,0
2017-09-25T04:17:08.900Z,0
2017-09-25T04:18:18.170Z,0
2017-09-25T04:19:27.447Z,0
2017-09-25T04:20:36.105Z,0
2017-09-25T04:21:45.132Z,0
2017-09-25T04:22:53.818Z,0
2017-09-25T04:24:02.461Z,0
2017-09-25T04:25:11.746Z,0
2017-09-25T04:26:21.012Z,0
2017-09-25T04:27:29.972Z,0
2017-09-25T04:28:39.890Z,0
2017-09-25T04:29:49.187Z,0
2017-09-25T04:30:58.458Z,0
2017-09-25T04:32:07.451Z,0
2017-09-25T04:33:16.435Z,0
2017-09-25T04:34:25.715Z,0
2017-09-25T04:35:35.045Z,0
2017-09-25T04:36:43.704Z,0
2017-09-25T04:37:53.128Z,0
2017-09-25T04:39:02.439Z,0
2017-09-25T04:40:12.461Z,0
2017-09-25T04:41:21.220Z,0
2017-09-25T04:42:30.781Z,0
2017-09-25T04:43:40.145Z,0
2017-09-25T04:44:49.752Z,0
2017-09-25T04:45:59.344Z,0
2017-09-25T04:47:08.040Z,0
2017-09-25T04:48:17.962Z,0
2017-09-25T04:49:26.648Z,0
2017-09-25T04:50:36.545Z,0
2017-09-25T04:51:46.148Z,0
2017-09-25T04:52:55.108Z,0
2017-09-25T04:54:04.501Z,0
2017-09-25T04:55:13.489Z,0
2017-09-25T04:56:22.791Z,0
2017-09-25T04:57:32.076Z,0
2017-09-25T04:58:41.708Z,0
2017-09-25T04:59:50.995Z,0
2017-09-25T05:00:59.649Z,0
2017-09-25T05:02:08.624Z,0
2017-09-25T05:03:17.911Z,0
2017-09-25T05:04:26.602Z,0
2017-09-25T05:05:35.734Z,0
2017-09-25T05:06:44.730Z,0
2017-09-25T05:07:53.432Z,0
2017-09-25T05:09:02.086Z,0
2017-09-25T05:10:10.794Z,0
2017-09-25T05:11:20.232Z,0
2017-09-25T05:12:29.221Z,0
2017-09-25T05:13:38.489Z,0
2017-09-25T05:14:47.489Z,0
2017-09-25T05:15:56.789Z,0
2017-09-25T05:17:05.943Z,0
2017-09-25T05:18:14.945Z,0
2017-09-25T05:19:23.917Z,0
2017-09-25T05:20:32.571Z,0
2017-09-25T05:21:41.897Z,0
2017-09-25T05:22:50.903Z,0
2017-09-25T05:23:59.892Z,0
2017-09-25T05:25:09.405Z,0
2017-09-25T05:26:19.102Z,0
2017-09-25T05:27:28.073Z,0
2017-09-25T05:28:37.225Z,0
2017-09-25T05:29:46.516Z,0
2017-09-25T05:30:55.484Z,0
2017-09-25T05:32:04.194Z,0
2017-09-25T05:33:12.892Z,0
2017-09-25T05:34:21.847Z,0
2017-09-25T05:35:31.452Z,0
2017-09-25T05:36:40.754Z,0
2017-09-25T05:37:50.063Z,0
2017-09-25T05:38:59.365Z,0
2017-09-25T05:40:08.364Z,0
2017-09-25T05:41:17.696Z,0
2017-09-25T05:42:26.375Z,0
2017-09-25T05:43:35.014Z,0
2017-09-25T05:44:44.623Z,5
2017-09-25T05:45:53.293Z,5
2017-09-25T05:47:03.224Z,5
2017-09-25T05:48:12.205Z,5
2017-09-25T05:49:21.205Z,5
2017-09-25T05:50:30.469Z,5
2017-09-25T05:51:39.740Z,5
2017-09-25T05:52:49.341Z,5
2017-09-25T05:53:58.347Z,5
2017-09-25T05:55:07.965Z,5
2017-09-25T05:56:17.586Z,5
2017-09-25T05:57:26.909Z,5
2017-09-25T05:58:36.218Z,5
2017-09-25T05:59:44.885Z,5
2017-09-25T06:00:53.560Z,5
2017-09-25T06:02:02.863Z,5
2017-09-25T06:03:11.862Z,5
2017-09-25T06:04:21.161Z,10
2017-09-25T06:05:30.182Z,10
2017-09-25T06:06:38.876Z,10
2017-09-25T06:07:47.851Z,10
2017-09-25T06:08:56.825Z,10
2017-09-25T06:10:05.515Z,10
2017-09-25T06:11:14.173Z,10
2017-09-25T06:12:23.159Z,10
2017-09-25T06:13:32.444Z,10
2017-09-25T06:14:42.202Z,10
2017-09-25T06:15:51.527Z,10
2017-09-25T06:17:00.846Z,10
2017-09-25T06:18:09.542Z,10
2017-09-25T06:19:19.163Z,10
2017-09-25T06:20:28.306Z,10
2017-09-25T06:21:36.956Z,10
2017-09-25T06:22:45.670Z,10
2017-09-25T06:23:54.973Z,15
2017-09-25T06:25:03.965Z,15
2017-09-25T06:26:13.105Z,15
2017-09-25T06:27:21.802Z,15
2017-09-25T06:28:30.471Z,15
2017-09-25T06:29:39.503Z,15
2017-09-25T06:30:48.171Z,15
2017-09-25T06:31:57.202Z,15
2017-09-25T06:33:06.814Z,15
2017-09-25T06:34:15.831Z,15
2017-09-25T06:35:24.817Z,15
2017-09-25T06:36:34.417Z,15
2017-09-25T06:37:43.876Z,15
2017-09-25T06:38:52.850Z,15
2017-09-25T06:40:01.823Z,20
2017-09-25T06:41:11.110Z,20
2017-09-25T06:42:21.037Z,25
2017-09-25T06:43:30.169Z,25
2017-09-25T06:44:39.609Z,25
2017-09-25T06:45:48.736Z,25
2017-09-25T06:46:58.047Z,25
2017-09-25T06:48:07.348Z,25
2017-09-25T06:49:16.576Z,25
2017-09-25T06:50:25.747Z,25
2017-09-25T06:51:37.781Z,25
2017-09-25T06:52:46.478Z,20
2017-09-25T06:53:55.836Z,20
2017-09-25T06:55:05.184Z,20
2017-09-25T06:56:13.843Z,20
2017-09-25T06:57:22.519Z,20
2017-09-25T06:58:32.133Z,15
2017-09-25T06:59:40.802Z,15
2017-09-25T07:00:50.406Z,15
2017-09-25T07:01:59.076Z,15
2017-09-25T07:03:07.771Z,15
2017-09-25T07:04:17.069Z,15
2017-09-25T07:05:25.748Z,15
2017-09-25T07:06:34.765Z,15
2017-09-25T07:07:44.363Z,15
2017-09-25T07:08:53.996Z,15
2017-09-25T07:10:02.978Z,15
2017-09-25T07:11:11.628Z,15
2017-09-25T07:12:20.621Z,15
2017-09-25T07:13:29.601Z,15
2017-09-25T07:14:39.548Z,15
2017-09-25T07:15:48.855Z,15
2017-09-25T07:16:58.469Z,15
2017-09-25T07:18:07.490Z,15
2017-09-25T07:19:16.777Z,15
2017-09-25T07:20:26.062Z,15
2017-09-25T07:21:35.444Z,15
2017-09-25T07:22:44.133Z,15
2017-09-25T07:23:53.149Z,15
2017-09-25T07:25:02.675Z,15
2017-09-25T07:26:11.634Z,15
2017-09-25T07:27:21.250Z,15
2017-09-25T07:28:29.939Z,15
2017-09-25T07:29:39.549Z,15
2017-09-25T07:30:48.879Z,15
2017-09-25T07:31:58.185Z,15
2017-09-25T07:33:07.329Z,15
2017-09-25T07:34:16.097Z,15
2017-09-25T07:35:25.849Z,15
2017-09-25T07:36:34.890Z,15
2017-09-25T07:37:44.649Z,15
2017-09-25T07:38:53.660Z,15
2017-09-25T07:40:02.639Z,15
2017-09-25T07:41:11.622Z,15
2017-09-25T07:42:20.299Z,15
2017-09-25T07:43:28.952Z,15
2017-09-25T07:44:38.254Z,15
2017-09-25T07:45:46.904Z,15
2017-09-25T07:46:56.504Z,15
2017-09-25T07:48:05.188Z,20
2017-09-25T07:49:14.188Z,20
2017-09-25T07:50:23.788Z,20
2017-09-25T07:51:33.101Z,20
2017-09-25T07:52:42.536Z,25
2017-09-25T07:53:51.535Z,25
2017-09-25T07:55:00.215Z,25
2017-09-25T07:56:09.227Z,25
2017-09-25T07:57:18.602Z,20
2017-09-25T07:58:28.125Z,20
2017-09-25T07:59:37.121Z,20
2017-09-25T08:00:47.050Z,20
2017-09-25T08:01:56.684Z,20
2017-09-25T08:03:05.716Z,20
2017-09-25T08:04:14.431Z,20
2017-09-25T08:05:23.098Z,20
2017-09-25T08:06:32.098Z,20
2017-09-25T08:07:41.091Z,20
2017-09-25T08:08:50.414Z,25
2017-09-25T08:09:59.404Z,25
2017-09-25T08:11:08.093Z,25
2017-09-25T08:12:17.165Z,25
2017-09-25T08:13:25.864Z,25
2017-09-25T08:14:34.853Z,25
2017-09-25T08:15:43.825Z,25
2017-09-25T08:16:52.797Z,25
2017-09-25T08:18:01.798Z,25
2017-09-25T08:19:11.732Z,25
2017-09-25T08:20:20.715Z,25
2017-09-25T08:21:30.047Z,25
2017-09-25T08:22:39.030Z,25
2017-09-25T08:23:47.697Z,25
2017-09-25T08:24:56.374Z,25
2017-09-25T08:26:05.343Z,25
2017-09-25T08:27:14.639Z,25
2017-09-25T08:28:23.999Z,25
2017-09-25T08:29:33.009Z,25
2017-09-25T08:30:42.002Z,25
2017-09-25T08:31:50.988Z,25
2017-09-25T08:33:00.601Z,25
2017-09-25T08:34:10.225Z,25
2017-09-25T08:35:19.513Z,25
2017-09-25T08:36:28.845Z,25
2017-09-25T08:37:37.957Z,25
2017-09-25T08:38:46.622Z,25
2017-09-25T08:39:55.643Z,25
2017-09-25T08:41:04.975Z,25
2017-09-25T08:42:14.930Z,25
2017-09-25T08:43:23.951Z,30
2017-09-25T08:44:33.255Z,30
2017-09-25T08:45:42.272Z,35
2017-09-25T08:46:51.567Z,35
2017-09-25T08:48:01.167Z,35
2017-09-25T08:49:10.199Z,40
2017-09-25T08:50:19.213Z,40
2017-09-25T08:51:28.223Z,35
2017-09-25T08:52:37.219Z,35
2017-09-25T08:53:46.546Z,35
2017-09-25T08:54:55.201Z,35
2017-09-25T08:56:04.406Z,30
2017-09-25T08:57:13.783Z,35
2017-09-25T08:58:22.870Z,35
2017-09-25T08:59:32.019Z,35
2017-09-25T09:00:40.687Z,35
2017-09-25T09:01:49.353Z,35
2017-09-25T09:02:58.690Z,35
2017-09-25T09:04:07.354Z,40
2017-09-25T09:05:16.338Z,45
2017-09-25T09:06:25.697Z,45
2017-09-25T09:07:34.680Z,45
2017-09-25T09:08:43.981Z,50
2017-09-25T09:09:52.635Z,50
2017-09-25T09:11:01.930Z,45
2017-09-25T09:12:10.958Z,45
2017-09-25T09:13:20.405Z,45
2017-09-25T09:14:29.067Z,45
2017-09-25T09:15:38.044Z,45
2017-09-25T09:16:47.675Z,45
2017-09-25T09:17:56.686Z,45
2017-09-25T09:19:05.696Z,50
2017-09-25T09:20:14.701Z,50
2017-09-25T09:21:24.006Z,50
2017-09-25T09:22:33.005Z,45
2017-09-25T09:23:41.681Z,45
2017-09-25T09:24:51.005Z,45
2017-09-25T09:25:59.999Z,45
2017-09-25T09:27:09.326Z,45
2017-09-25T09:28:17.989Z,40
2017-09-25T09:29:26.975Z,40
2017-09-25T09:30:35.984Z,40
2017-09-25T09:31:45.654Z,40
2017-09-25T09:32:55.260Z,40
2017-09-25T09:34:04.557Z,40
2017-09-25T09:35:14.191Z,40
2017-09-25T09:36:23.203Z,40
2017-09-25T09:37:32.206Z,45
2017-09-25T09:38:40.890Z,45
2017-09-25T09:39:50.195Z,45
2017-09-25T09:40:59.177Z,45
2017-09-25T09:42:08.878Z,45
2017-09-25T09:43:18.194Z,45
2017-09-25T09:44:27.176Z,40
2017-09-25T09:45:36.172Z,45
2017-09-25T09:46:45.487Z,45
2017-09-25T09:47:55.120Z,45
2017-09-25T09:49:04.466Z,40
2017-09-25T09:50:13.488Z,40
2017-09-25T09:51:22.799Z,40
2017-09-25T09:52:31.479Z,45
2017-09-25T09:53:40.820Z,50
2017-09-25T09:54:50.754Z,50
2017-09-25T09:55:59.745Z,50
2017-09-25T09:57:09.102Z,50
2017-09-25T09:58:18.739Z,50
2017-09-25T09:59:27.724Z,45
2017-09-25T10:00:36.419Z,50
2017-09-25T10:01:46.051Z,55
2017-09-25T10:02:55.038Z,55
2017-09-25T10:04:04.650Z,60
2017-09-25T10:05:13.977Z,60
2017-09-25T10:06:23.296Z,55
2017-09-25T10:07:32.585Z,60
2017-09-25T10:08:41.742Z,60
2017-09-25T10:09:51.034Z,55
2017-09-25T10:10:59.936Z,55
2017-09-25T10:12:09.230Z,55
2017-09-25T10:13:18.534Z,55
2017-09-25T10:14:27.548Z,50
2017-09-25T10:15:36.504Z,50
2017-09-25T10:16:45.844Z,50
2017-09-25T10:17:55.177Z,45
2017-09-25T10:19:04.483Z,50
2017-09-25T10:20:13.781Z,50
2017-09-25T10:21:22.761Z,50
2017-09-25T10:22:31.433Z,45
2017-09-25T10:23:40.420Z,45
2017-09-25T10:24:49.392Z,50
2017-09-25T10:25:58.996Z,50
2017-09-25T10:27:08.675Z,50
2017-09-25T10:28:17.979Z,50
2017-09-25T10:29:27.327Z,50
2017-09-25T10:30:36.640Z,50
2017-09-25T10:31:45.937Z,50
2017-09-25T10:32:54.608Z,50
2017-09-25T10:34:03.581Z,50
2017-09-25T10:35:12.239Z,50
2017-09-25T10:36:21.344Z,50
2017-09-25T10:37:30.023Z,50
2017-09-25T10:38:39.011Z,50
2017-09-25T10:39:47.666Z,50
2017-09-25T10:40:57.272Z,50
2017-09-25T10:42:06.566Z,50
2017-09-25T10:43:15.554Z,50
2017-09-25T10:44:25.162Z,50
2017-09-25T10:45:33.842Z,50
2017-09-25T10:46:42.517Z,50
2017-09-25T10:47:51.512Z,50
2017-09-25T10:49:00.500Z,50
2017-09-25T10:50:09.806Z,50
2017-09-25T10:51:18.694Z,50
2017-09-25T10:52:28.675Z,50
2017-09-25T10:53:37.342Z,50
2017-09-25T10:54:46.652Z,50
2017-09-25T10:55:55.638Z,50
2017-09-25T10:57:04.622Z,50
2017-09-25T10:58:13.426Z,50
2017-09-25T10:59:22.397Z,50
2017-09-25T11:00:31.766Z,50
2017-09-25T11:01:40.739Z,50
2017-09-25T11:02:50.032Z,50
2017-09-25T11:03:59.020Z,50
2017-09-25T11:05:08.326Z,50
2017-09-25T11:06:17.306Z,50
2017-09-25T11:07:26.316Z,50
2017-09-25T11:08:35.071Z,50
2017-09-25T11:09:44.379Z,50
2017-09-25T11:10:53.458Z,50
2017-09-25T11:12:02.151Z,50
2017-09-25T11:13:10.835Z,50
2017-09-25T11:14:20.168Z,55
2017-09-25T11:15:29.160Z,55
2017-09-25T11:16:38.485Z,50
2017-09-25T11:17:47.470Z,45
2017-09-25T11:18:57.109Z,40
2017-09-25T11:20:06.094Z,35
2017-09-25T11:21:15.071Z,30
2017-09-25T11:22:23.748Z,30
2017-09-25T11:23:33.414Z,25
2017-09-25T11:24:42.752Z,25
2017-09-25T11:25:51.725Z,25
2017-09-25T11:27:01.025Z,20
2017-09-25T11:28:10.016Z,20
2017-09-25T11:29:18.675Z,20
2017-09-25T11:30:27.979Z,20
2017-09-25T11:31:36.948Z,15
2017-09-25T11:32:46.229Z,20
2017-09-25T11:33:56.162Z,20
2017-09-25T11:35:04.823Z,20
2017-09-25T11:36:13.809Z,20
2017-09-25T11:37:22.794Z,20
2017-09-25T11:38:31.770Z,15
2017-09-25T11:39:41.385Z,15
2017-09-25T11:40:50.385Z,15
2017-09-25T11:41:59.375Z,15
2017-09-25T11:43:08.356Z,15
2017-09-25T11:44:17.970Z,15
2017-09-25T11:45:26.954Z,15
2017-09-25T11:46:36.304Z,20
2017-09-25T11:47:44.956Z,20
2017-09-25T11:48:53.942Z,20
2017-09-25T11:50:03.244Z,20
2017-09-25T11:51:12.529Z,20
2017-09-25T11:52:21.510Z,20
2017-09-25T11:53:30.528Z,20
2017-09-25T11:54:39.896Z,20
2017-09-25T11:55:49.240Z,20
2017-09-25T11:56:58.225Z,20
2017-09-25T11:58:06.895Z,20
2017-09-25T11:59:15.882Z,20
2017-09-25T12:00:24.869Z,20
2017-09-25T12:01:33.548Z,20
2017-09-25T12:02:42.869Z,20
2017-09-25T12:03:51.843Z,20
2017-09-25T12:05:01.136Z,20
2017-09-25T12:06:10.436Z,20
2017-09-25T12:07:19.106Z,20
2017-09-25T12:08:28.722Z,20
2017-09-25T12:09:37.698Z,20
2017-09-25T12:10:46.998Z,20
2017-09-25T12:11:56.319Z,25
2017-09-25T12:13:05.604Z,25
2017-09-25T12:14:14.573Z,25
2017-09-25T12:15:23.581Z,25
2017-09-25T12:16:32.919Z,25
2017-09-25T12:17:41.586Z,20
2017-09-25T12:18:51.209Z,20
2017-09-25T12:20:00.191Z,20
2017-09-25T12:21:09.185Z,20
2017-09-25T12:22:17.859Z,25
2017-09-25T12:23:27.162Z,25
2017-09-25T12:24:36.766Z,30
2017-09-25T12:25:45.417Z,30
2017-09-25T12:26:54.085Z,35
2017-09-25T12:28:02.760Z,35
2017-09-25T12:29:11.421Z,30
2017-09-25T12:30:20.093Z,30
2017-09-25T12:31:29.076Z,30
2017-09-25T12:32:38.376Z,30
2017-09-25T12:33:47.340Z,30
2017-09-25T12:34:56.350Z,35
2017-09-25T12:36:05.345Z,35
2017-09-25T12:37:14.336Z,35
2017-09-25T12:38:23.326Z,35
2017-09-25T12:39:32.300Z,40
2017-09-25T12:40:41.278Z,45
2017-09-25T12:41:50.604Z,45
2017-09-25T12:42:59.592Z,50
2017-09-25T12:44:08.893Z,45
2017-09-25T12:45:17.565Z,45
2017-09-25T12:46:26.561Z,40
2017-09-25T12:47:35.579Z,35
2017-09-25T12:48:44.576Z,30
2017-09-25T12:49:53.884Z,25
2017-09-25T12:51:03.188Z,20
2017-09-25T12:52:12.480Z,15
2017-09-25T12:53:22.137Z,10
2017-09-25T12:54:30.863Z,10
2017-09-25T12:55:39.845Z,10
2017-09-25T12:56:49.167Z,10
2017-09-25T12:57:58.158Z,5
2017-09-25T12:59:07.771Z,5
2017-09-25T13:00:16.425Z,5
2017-09-25T13:01:25.417Z,5
2017-09-25T13:02:34.468Z,5
2017-09-25T13:03:43.463Z,5
2017-09-25T13:04:52.771Z,5
2017-09-25T13:06:01.435Z,5
2017-09-25T13:07:10.097Z,5
2017-09-25T13:08:19.473Z,5
2017-09-25T13:09:28.310Z,5
2017-09-25T13:10:37.434Z,5
2017-09-25T13:11:46.411Z,10
2017-09-25T13:12:55.114Z,10
2017-09-25T13:14:05.053Z,10
2017-09-25T13:15:14.266Z,10
2017-09-25T13:16:23.876Z,10
2017-09-25T13:17:32.564Z,10
2017-09-25T13:18:41.561Z,10
2017-09-25T13:19:50.240Z,15
2017-09-25T13:20:59.208Z,15
2017-09-25T13:22:08.493Z,15
2017-09-25T13:23:17.472Z,15
2017-09-25T13:24:26.771Z,15
2017-09-25T13:25:35.459Z,15
2017-09-25T13:26:45.094Z,15
2017-09-25T13:27:54.397Z,15
2017-09-25T13:29:03.721Z,15
2017-09-25T13:30:12.412Z,15
2017-09-25T13:31:21.399Z,15
2017-09-25T13:32:30.443Z,15
2017-09-25T13:33:39.812Z,20
2017-09-25T13:34:48.652Z,20
2017-09-25T13:35:57.991Z,20
2017-09-25T13:37:07.283Z,20
2017-09-25T13:38:15.967Z,20
2017-09-25T13:39:24.641Z,20
2017-09-25T13:40:33.654Z,25
2017-09-25T13:41:43.209Z,25
2017-09-25T13:42:52.524Z,25
2017-09-25T13:44:01.844Z,25
2017-09-25T13:45:11.173Z,25
2017-09-25T13:46:20.509Z,25
2017-09-25T13:47:29.801Z,25
2017-09-25T13:48:39.140Z,25
2017-09-25T13:49:47.915Z,25
2017-09-25T13:50:56.931Z,25
2017-09-25T13:52:05.612Z,25
2017-09-25T13:53:14.581Z,25
2017-09-25T13:54:23.574Z,25
2017-09-25T13:55:33.188Z,25
2017-09-25T13:56:42.817Z,25
2017-09-25T13:57:51.793Z,25
2017-09-25T14:02:49.898Z,25
2017-09-25T14:03:59.219Z,25
2017-09-25T14:05:07.916Z,25
2017-09-25T14:06:17.565Z,25
2017-09-25T14:07:26.583Z,25
2017-09-25T14:08:35.264Z,25
2017-09-25T14:09:44.878Z,25
2017-09-25T14:10:53.859Z,25
2017-09-25T14:12:02.832Z,25
2017-09-25T14:13:11.820Z,25
2017-09-25T14:14:20.493Z,20
2017-09-25T14:15:29.801Z,20
2017-09-25T14:16:38.816Z,20
2017-09-25T14:17:47.789Z,20
2017-09-25T14:18:56.772Z,25
2017-09-25T14:20:05.468Z,25
2017-09-25T14:21:14.466Z,25
2017-09-25T14:22:23.450Z,25
2017-09-25T14:23:32.433Z,25
2017-09-25T14:24:41.433Z,20
2017-09-25T14:25:51.065Z,20
2017-09-25T14:27:00.388Z,20
2017-09-25T14:28:09.384Z,20
2017-09-25T14:29:18.408Z,20
2017-09-25T14:30:27.405Z,20
2017-09-25T14:31:36.722Z,20
2017-09-25T14:32:45.724Z,20
2017-09-25T14:33:54.698Z,20
2017-09-25T14:35:03.713Z,20
2017-09-25T14:36:13.195Z,20
2017-09-25T14:37:21.887Z,20
2017-09-25T14:38:30.556Z,20
2017-09-25T14:39:39.882Z,20
2017-09-25T14:40:48.865Z,20
2017-09-25T14:41:57.874Z,20
2017-09-25T14:43:06.883Z,20
2017-09-25T14:44:15.918Z,20
2017-09-25T14:45:24.902Z,20
2017-09-25T14:46:33.883Z,20
2017-09-25T14:47:42.551Z,20
2017-09-25T14:48:52.161Z,20
2017-09-25T14:50:00.855Z,20
2017-09-25T14:51:09.844Z,20
2017-09-25T14:52:19.148Z,20
2017-09-25T14:53:27.823Z,20
2017-09-25T14:54:36.807Z,20
2017-09-25T14:55:45.485Z,20
2017-09-25T14:56:54.460Z,20
2017-09-25T14:58:03.121Z,15
2017-09-25T14:59:12.086Z,15
2017-09-25T15:00:21.377Z,15
2017-09-25T15:01:30.990Z,15
2017-09-25T15:02:39.993Z,15
2017-09-25T15:03:49.285Z,15
2017-09-25T15:04:58.391Z,20
2017-09-25T15:06:07.365Z,20
2017-09-25T15:07:16.355Z,20
2017-09-25T15:08:25.410Z,15
2017-09-25T15:09:34.753Z,15
2017-09-25T15:10:43.773Z,15
2017-09-25T15:11:52.834Z,15
2017-09-25T15:13:02.127Z,15
2017-09-25T15:14:11.419Z,15
2017-09-25T15:15:20.401Z,15
2017-09-25T15:16:29.391Z,15
2017-09-25T15:17:38.188Z,15
2017-09-25T15:18:47.161Z,15
2017-09-25T15:19:56.216Z,15
2017-09-25T15:21:04.913Z,15
2017-09-25T15:22:13.594Z,15
2017-09-25T15:23:22.577Z,15
2017-09-25T15:24:31.903Z,15
2017-09-25T15:25:40.879Z,15
2017-09-25T15:26:50.216Z,15
2017-09-25T15:27:59.584Z,15
2017-09-25T15:29:09.316Z,15
2017-09-25T15:30:18.312Z,15
2017-09-25T15:31:27.626Z,15
2017-09-25T15:32:36.641Z,15
2017-09-25T15:33:45.667Z,15
2017-09-25T15:34:54.971Z,15
2017-09-25T15:36:04.292Z,10
2017-09-25T15:37:12.947Z,10
2017-09-25T15:38:22.301Z,10
2017-09-25T15:39:31.362Z,10
2017-09-25T15:40:40.368Z,10
2017-09-25T15:41:49.655Z,10
2017-09-25T15:42:59.285Z,10
2017-09-25T15:44:08.908Z,10
2017-09-25T15:45:17.578Z,10
2017-09-25T15:46:26.275Z,10
2017-09-25T15:47:35.574Z,10
2017-09-25T15:48:44.890Z,10
2017-09-25T15:49:54.521Z,10
2017-09-25T15:51:03.856Z,10
2017-09-25T15:52:12.534Z,10
2017-09-25T15:53:22.143Z,10
2017-09-25T15:54:32.059Z,10
2017-09-25T15:55:41.037Z,10
2017-09-25T15:56:50.334Z,10
2017-09-25T15:57:59.940Z,10
2017-09-25T15:59:08.603Z,10
2017-09-25T16:00:18.321Z,10
2017-09-25T16:01:27.012Z,10
2017-09-25T16:02:36.315Z,10
2017-09-25T16:03:45.985Z,5
2017-09-25T16:04:55.057Z,5
2017-09-25T16:06:04.409Z,5
2017-09-25T16:07:13.390Z,5
2017-09-25T16:08:22.044Z,5
2017-09-25T16:09:31.654Z,5
2017-09-25T16:10:40.981Z,5
2017-09-25T16:11:50.088Z,5
2017-09-25T16:12:59.400Z,5
2017-09-25T16:14:08.417Z,5
2017-09-25T16:15:17.710Z,5
2017-09-25T16:16:26.687Z,5
2017-09-25T16:17:35.699Z,5
2017-09-25T16:18:45.331Z,5
2017-09-25T16:19:54.005Z,5
2017-09-25T16:21:03.920Z,5
2017-09-25T16:22:13.228Z,5
2017-09-25T16:23:21.896Z,5
2017-09-25T16:24:30.584Z,5
2017-09-25T16:25:39.259Z,5
2017-09-25T16:26:48.244Z,5
2017-09-25T16:27:57.227Z,5
2017-09-25T16:29:06.521Z,5
2017-09-25T16:30:15.834Z,5
2017-09-25T16:31:24.810Z,5
2017-09-25T16:32:33.769Z,5
2017-09-25T16:33:43.106Z,5
2017-09-25T16:34:52.078Z,5
2017-09-25T16:36:01.375Z,5
2017-09-25T16:37:10.354Z,5
2017-09-25T16:38:19.346Z,5
2017-09-25T16:39:28.329Z,5
2017-09-25T16:40:37.933Z,5
2017-09-25T16:41:47.224Z,5
2017-09-25T16:42:55.895Z,0
2017-09-25T16:44:05.186Z,0